createdAt,value
2022-07-31T00:02:11.522Z,99.90
2022-07-31T00:04:41.582Z,99.90
2022-07-31T00:07:11.680Z,99.90
2022-07-31T00:09:53.427Z,99.90
2022-07-31T00:12:25.263Z,99.90
2022-07-31T00:14:56.087Z,99.90
2022-07-31T00:17:26.390Z,99.90
2022-07-31T00:19:56.529Z,99.90
2022-07-31T00:22:26.489Z,99.90
2022-07-31T00:24:56.577Z,99.90
2022-07-31T00:27:27.065Z,99.90
2022-07-31T00:37:32.573Z,99.90
2022-07-31T00:40:02.986Z,99.90
2022-07-31T00:42:33.040Z,99.90
2022-07-31T00:45:03.495Z,99.90
2022-07-31T00:47:35.861Z,99.90
2022-07-31T00:50:07.042Z,99.90
2022-07-31T00:52:37.037Z,99.90
2022-07-31T00:55:07.529Z,99.90
2022-07-31T00:57:38.363Z,99.90
2022-07-31T01:00:08.990Z,99.90
2022-07-31T01:02:46.547Z,99.90
2022-07-31T01:05:16.993Z,99.90
2022-07-31T01:07:50.838Z,99.90
2022-07-31T01:10:38.605Z,99.90
2022-07-31T01:13:13.586Z,99.90
2022-07-31T01:15:45.992Z,99.90
2022-07-31T01:18:16.836Z,99.90
2022-07-31T01:20:50.486Z,99.90
2022-07-31T01:24:00.020Z,99.90
2022-07-31T01:26:52.843Z,99.90
2022-07-31T01:29:46.550Z,99.90
2022-07-31T01:32:40.657Z,99.90
2022-07-31T01:35:20.196Z,99.90
2022-07-31T01:38:15.376Z,99.90
2022-07-31T01:40:49.691Z,99.90
2022-07-31T01:43:47.579Z,99.90
2022-07-31T01:46:18.936Z,99.90
2022-07-31T01:48:51.130Z,99.90
2022-07-31T01:51:23.383Z,99.90
2022-07-31T01:53:55.370Z,99.90
2022-07-31T01:56:26.507Z,99.90
2022-07-31T01:58:58.969Z,99.90
2022-07-31T02:01:31.095Z,99.90
2022-07-31T02:04:02.973Z,99.90
2022-07-31T02:06:33.881Z,99.90
2022-07-31T02:09:06.460Z,99.90
2022-07-31T02:11:53.461Z,99.90
2022-07-31T02:14:27.886Z,99.90
2022-07-31T02:16:58.577Z,99.90
2022-07-31T02:19:29.158Z,99.90
2022-07-31T02:22:02.768Z,99.90
2022-07-31T02:24:33.059Z,99.90
2022-07-31T02:27:04.658Z,99.90
2022-07-31T02:29:36.710Z,99.90
2022-07-31T02:32:08.270Z,99.90
2022-07-31T02:34:40.029Z,99.90
2022-07-31T02:37:11.618Z,99.90
2022-07-31T02:39:42.573Z,99.90
2022-07-31T02:42:12.615Z,99.90
2022-07-31T02:44:42.979Z,99.90
2022-07-31T02:47:14.729Z,99.90
2022-07-31T02:49:47.143Z,99.90
2022-07-31T02:52:17.407Z,99.90
2022-07-31T02:54:48.985Z,99.90
2022-07-31T02:57:19.527Z,99.90
2022-07-31T02:59:49.657Z,99.90
2022-07-31T03:02:20.035Z,99.90
2022-07-31T03:04:50.184Z,99.90
2022-07-31T03:07:20.311Z,99.90
2022-07-31T03:09:51.627Z,99.90
2022-07-31T03:12:21.868Z,99.90
2022-07-31T03:14:51.968Z,99.90
2022-07-31T03:17:23.029Z,99.90
2022-07-31T03:20:10.620Z,99.90
2022-07-31T03:22:42.503Z,99.90
2022-07-31T03:25:20.204Z,99.90
2022-07-31T03:27:56.095Z,99.90
2022-07-31T03:30:27.707Z,99.90
2022-07-31T03:32:58.980Z,99.90
2022-07-31T03:35:29.353Z,99.90
2022-07-31T03:37:59.470Z,99.90
2022-07-31T03:40:29.732Z,99.90
2022-07-31T03:42:59.979Z,99.90
2022-07-31T03:45:31.677Z,99.90
2022-07-31T03:48:01.867Z,99.90
2022-07-31T03:50:32.445Z,99.90
2022-07-31T03:53:02.751Z,99.90
2022-07-31T03:55:34.127Z,99.90
2022-07-31T03:58:04.926Z,99.90
2022-07-31T04:00:37.755Z,99.90
2022-07-31T04:03:13.097Z,99.90
2022-07-31T04:05:44.081Z,99.90
2022-07-31T04:08:14.134Z,99.90
2022-07-31T04:10:47.515Z,99.90
2022-07-31T04:13:17.936Z,99.90
2022-07-31T04:15:48.062Z,99.90
2022-07-31T04:18:18.042Z,99.90
2022-07-31T04:20:48.155Z,99.90
2022-07-31T04:23:18.776Z,99.90
2022-07-31T04:25:49.488Z,99.90
2022-07-31T04:28:19.804Z,99.90
2022-07-31T04:30:49.683Z,99.90
2022-07-31T04:33:19.943Z,99.90
2022-07-31T04:35:50.226Z,99.90
2022-07-31T04:38:20.487Z,99.90
2022-07-31T04:40:52.116Z,99.90
2022-07-31T04:43:22.248Z,99.90
2022-07-31T04:45:52.290Z,99.90
2022-07-31T04:48:22.325Z,99.90
2022-07-31T04:50:52.279Z,99.90
2022-07-31T04:53:22.504Z,99.90
2022-07-31T04:56:12.059Z,99.90
2022-07-31T04:58:42.234Z,99.90
2022-07-31T05:01:12.393Z,99.90
2022-07-31T05:03:46.492Z,99.90
2022-07-31T05:06:17.171Z,99.90
2022-07-31T05:08:47.297Z,99.90
2022-07-31T05:11:27.308Z,99.90
2022-07-31T05:14:01.334Z,99.90
2022-07-31T05:16:32.855Z,99.90
2022-07-31T05:19:04.022Z,99.90
2022-07-31T05:21:34.145Z,99.90
2022-07-31T05:24:33.932Z,99.90
2022-07-31T05:27:05.602Z,99.90
2022-07-31T05:29:36.502Z,99.90
2022-07-31T05:32:06.877Z,99.40
2022-07-31T05:34:36.797Z,99.10
2022-07-31T05:37:06.889Z,98.60
2022-07-31T05:39:37.092Z,98.70
2022-07-31T05:42:07.434Z,98.50
2022-07-31T05:44:37.632Z,98.30
2022-07-31T05:47:10.616Z,98.10
2022-07-31T05:49:40.617Z,95.70
2022-07-31T05:52:10.988Z,94.10
2022-07-31T05:54:41.036Z,94.80
2022-07-31T05:57:11.228Z,95.20
2022-07-31T05:59:41.337Z,95.40
2022-07-31T06:02:11.467Z,95.00
2022-07-31T06:04:41.589Z,95.40
2022-07-31T06:07:11.744Z,95.40
2022-07-31T06:09:42.119Z,95.10
2022-07-31T06:12:13.287Z,95.40
2022-07-31T06:14:43.298Z,95.30
2022-07-31T06:17:13.588Z,95.30
2022-07-31T06:19:43.497Z,94.90
2022-07-31T06:22:13.816Z,94.80
2022-07-31T06:24:43.916Z,95.00
2022-07-31T06:27:16.217Z,95.20
2022-07-31T06:30:05.005Z,95.10
2022-07-31T06:32:35.732Z,95.10
2022-07-31T06:35:08.158Z,95.00
2022-07-31T06:37:38.063Z,95.00
2022-07-31T06:40:08.839Z,95.00
2022-07-31T06:42:40.187Z,94.90
2022-07-31T06:45:10.806Z,94.90
2022-07-31T06:47:40.766Z,94.90
2022-07-31T06:50:11.473Z,94.70
2022-07-31T06:52:41.558Z,94.60
2022-07-31T06:55:11.769Z,94.30
2022-07-31T06:57:42.115Z,94.20
2022-07-31T07:00:19.701Z,94.20
2022-07-31T07:02:50.905Z,94.10
2022-07-31T07:05:20.924Z,94.00
2022-07-31T07:07:51.329Z,94.00
2022-07-31T07:10:21.407Z,93.80
2022-07-31T07:12:52.296Z,93.80
2022-07-31T07:15:24.263Z,93.70
2022-07-31T07:17:54.433Z,93.60
2022-07-31T07:20:24.517Z,93.50
2022-07-31T07:22:56.348Z,93.50
2022-07-31T07:25:26.357Z,93.40
2022-07-31T07:27:58.509Z,93.40
2022-07-31T07:30:30.447Z,93.10
2022-07-31T07:33:01.538Z,93.20
2022-07-31T07:35:34.107Z,93.00
2022-07-31T07:38:04.599Z,93.00
2022-07-31T07:40:35.543Z,93.00
2022-07-31T07:43:05.474Z,93.00
2022-07-31T07:45:35.645Z,92.90
2022-07-31T07:48:07.421Z,92.60
2022-07-31T07:50:37.981Z,92.70
2022-07-31T07:53:07.858Z,92.70
2022-07-31T07:55:40.982Z,92.80
2022-07-31T07:58:12.200Z,92.70
2022-07-31T08:00:42.580Z,92.60
2022-07-31T08:03:49.029Z,92.40
2022-07-31T08:06:02.636Z,92.20
2022-07-31T08:08:32.789Z,92.10
2022-07-31T08:11:04.657Z,91.60
2022-07-31T08:13:35.911Z,91.20
2022-07-31T08:16:09.076Z,91.10
2022-07-31T08:18:39.503Z,91.20
2022-07-31T08:21:09.532Z,91.40
2022-07-31T08:23:39.635Z,91.90
2022-07-31T08:26:10.603Z,91.60
2022-07-31T08:28:41.621Z,91.70
2022-07-31T08:31:22.138Z,91.60
2022-07-31T08:33:52.301Z,91.70
2022-07-31T08:36:22.531Z,91.70
2022-07-31T08:38:54.389Z,91.80
2022-07-31T08:41:24.575Z,91.80
2022-07-31T08:44:00.747Z,91.80
2022-07-31T08:46:38.817Z,91.80
2022-07-31T08:49:13.032Z,91.90
2022-07-31T08:51:50.928Z,91.90
2022-07-31T09:14:03.471Z,90.80
